BEL6TX EBBR-LGKO
Flight info
| Callsign | BEL6TX |
|---|---|
| Flight time | 3h 5m |
| Altitude | 35000 |
| Route | SOPOK Y863 ROPUV L607 ULNOK DCT VIBOM DCT NOMBO DCT RIDAR DCT RADIZ DCT GORPA DCT DEVUL/N0444F370 DCT REMSO DCT MEDUX UM867 KOGAT DCT ERANA UL737 TSL UN130 MES UN139 OKORO N139 LURUS L995 KOPAR |
| Aircraft | A320/M-DE3FGHIJ1LORVWY/HB1 |
Departure
| Time | 2026-05-08 07:49 |
|---|---|
| Airport | Brussels Airport (EBBR) |
Arrival
| Time | 2026-05-08 10:54 |
|---|---|
| Airport | Kos International Airport "Ippokratis" (LGKO) |
| Time | Latitude | Longitude | Altitude | Speed | Heading |
|---|---|---|---|---|---|
| 2026-05-08 06:58 | 50.90404 | 4.48597 | 121 ft | 0 kts | 155° |
| 2026-05-08 07:38 | 50.90413 | 4.48590 | 117 ft | 4 kts | 155° |
| 2026-05-08 07:38 | 50.90438 | 4.48572 | 116 ft | 4 kts | 152° |
| 2026-05-08 07:39 | 50.90461 | 4.48550 | 118 ft | 4 kts | 143° |
| 2026-05-08 07:39 | 50.90479 | 4.48522 | 118 ft | 4 kts | 105° |
| 2026-05-08 07:39 | 50.90480 | 4.48503 | 117 ft | 0 kts | 65° |
| 2026-05-08 07:42 | 50.90480 | 4.48504 | 117 ft | 1 kts | 65° |
| 2026-05-08 07:42 | 50.90494 | 4.48552 | 119 ft | 9 kts | 65° |
| 2026-05-08 07:42 | 50.90529 | 4.48673 | 118 ft | 14 kts | 65° |
| 2026-05-08 07:42 | 50.90570 | 4.48815 | 119 ft | 15 kts | 65° |
| 2026-05-08 07:43 | 50.90613 | 4.48965 | 117 ft | 16 kts | 65° |
| 2026-05-08 07:43 | 50.90641 | 4.49126 | 121 ft | 15 kts | 117° |
| 2026-05-08 07:43 | 50.90557 | 4.49199 | 122 ft | 13 kts | 155° |
| 2026-05-08 07:43 | 50.90475 | 4.49258 | 118 ft | 14 kts | 155° |
| 2026-05-08 07:44 | 50.90394 | 4.49317 | 121 ft | 11 kts | 155° |
| 2026-05-08 07:44 | 50.90333 | 4.49375 | 125 ft | 12 kts | 137° |
| 2026-05-08 07:44 | 50.90239 | 4.49387 | 127 ft | 15 kts | 194° |
| 2026-05-08 07:44 | 50.90151 | 4.49351 | 126 ft | 11 kts | 195° |
| 2026-05-08 07:45 | 50.90070 | 4.49318 | 128 ft | 15 kts | 194° |
| 2026-05-08 07:45 | 50.89959 | 4.49273 | 134 ft | 16 kts | 194° |
| 2026-05-08 07:45 | 50.89862 | 4.49233 | 140 ft | 15 kts | 194° |
| 2026-05-08 07:45 | 50.89762 | 4.49192 | 145 ft | 15 kts | 194° |
| 2026-05-08 07:46 | 50.89662 | 4.49151 | 151 ft | 13 kts | 194° |
| 2026-05-08 07:46 | 50.89588 | 4.49189 | 155 ft | 14 kts | 163° |
| 2026-05-08 07:46 | 50.89501 | 4.49162 | 160 ft | 10 kts | 194° |
| 2026-05-08 07:46 | 50.89437 | 4.49136 | 163 ft | 12 kts | 194° |
| 2026-05-08 07:47 | 50.89351 | 4.49102 | 166 ft | 11 kts | 194° |
| 2026-05-08 07:47 | 50.89293 | 4.49078 | 168 ft | 6 kts | 194° |
| 2026-05-08 07:47 | 50.89247 | 4.49059 | 172 ft | 8 kts | 194° |
| 2026-05-08 07:47 | 50.89180 | 4.49031 | 176 ft | 12 kts | 194° |
| 2026-05-08 07:48 | 50.89140 | 4.49059 | 176 ft | 7 kts | 73° |
| 2026-05-08 07:48 | 50.89175 | 4.49214 | 176 ft | 39 kts | 70° |
| 2026-05-08 07:48 | 50.89354 | 4.49988 | 177 ft | 107 kts | 70° |
| 2026-05-08 07:48 | 50.89676 | 4.51383 | 216 ft | 156 kts | 70° |
| 2026-05-08 07:49 | 50.90033 | 4.52991 | 771 ft | 158 kts | 70° |
| 2026-05-08 07:49 | 50.90478 | 4.54578 | 1467 ft | 157 kts | 64° |
| 2026-05-08 07:49 | 50.90980 | 4.56122 | 2126 ft | 157 kts | 63° |
| 2026-05-08 07:49 | 50.91492 | 4.57650 | 2687 ft | 157 kts | 63° |
| 2026-05-08 07:50 | 50.92003 | 4.59168 | 3208 ft | 156 kts | 63° |
| 2026-05-08 07:50 | 50.92519 | 4.60718 | 3576 ft | 167 kts | 63° |
| 2026-05-08 07:50 | 50.93092 | 4.62463 | 3756 ft | 190 kts | 64° |
| 2026-05-08 07:50 | 50.93708 | 4.64436 | 4007 ft | 209 kts | 71° |
| 2026-05-08 07:51 | 50.94148 | 4.66730 | 4305 ft | 228 kts | 74° |
| 2026-05-08 07:51 | 50.94630 | 4.69273 | 4593 ft | 253 kts | 73° |
| 2026-05-08 07:51 | 50.95159 | 4.71992 | 5248 ft | 261 kts | 74° |
| 2026-05-08 07:51 | 50.95419 | 4.74848 | 6047 ft | 264 kts | 92° |
| 2026-05-08 07:52 | 50.95064 | 4.77713 | 6806 ft | 268 kts | 112° |
| 2026-05-08 07:52 | 50.94092 | 4.80239 | 7526 ft | 271 kts | 133° |
| 2026-05-08 07:52 | 50.92663 | 4.82212 | 8265 ft | 275 kts | 142° |
| 2026-05-08 07:52 | 50.91163 | 4.84138 | 9006 ft | 280 kts | 141° |
| 2026-05-08 07:53 | 50.89640 | 4.86090 | 9755 ft | 284 kts | 146° |
| 2026-05-08 07:53 | 50.87904 | 4.87592 | 10425 ft | 287 kts | 160° |
| 2026-05-08 07:53 | 50.85907 | 4.88378 | 10669 ft | 307 kts | 175° |
| 2026-05-08 07:53 | 50.83704 | 4.88719 | 10826 ft | 330 kts | 175° |
| 2026-05-08 07:54 | 50.81380 | 4.89059 | 11262 ft | 340 kts | 175° |
| 2026-05-08 07:54 | 50.79007 | 4.89406 | 11891 ft | 345 kts | 175° |
| 2026-05-08 07:54 | 50.76606 | 4.89766 | 12541 ft | 349 kts | 175° |
| 2026-05-08 07:54 | 50.74178 | 4.90141 | 13203 ft | 352 kts | 175° |
| 2026-05-08 07:55 | 50.71732 | 4.90563 | 13859 ft | 356 kts | 171° |
| 2026-05-08 07:55 | 50.69348 | 4.91712 | 14416 ft | 362 kts | 156° |
| 2026-05-08 07:55 | 50.67209 | 4.93858 | 14990 ft | 368 kts | 140° |
| 2026-05-08 07:55 | 50.65492 | 4.96875 | 15564 ft | 373 kts | 124° |
| 2026-05-08 07:56 | 50.64339 | 5.00556 | 16130 ft | 378 kts | 109° |
| 2026-05-08 07:56 | 50.63529 | 5.04509 | 16712 ft | 381 kts | 109° |
| 2026-05-08 07:56 | 50.62715 | 5.08500 | 17277 ft | 384 kts | 109° |
| 2026-05-08 07:56 | 50.61895 | 5.12504 | 17847 ft | 387 kts | 109° |
| 2026-05-08 07:57 | 50.61058 | 5.16558 | 18355 ft | 391 kts | 109° |
| 2026-05-08 07:57 | 50.60220 | 5.20589 | 18817 ft | 395 kts | 109° |
| 2026-05-08 07:57 | 50.59364 | 5.24708 | 19310 ft | 397 kts | 109° |
| 2026-05-08 07:57 | 50.58308 | 5.28722 | 19790 ft | 398 kts | 124° |
| 2026-05-08 07:58 | 50.56479 | 5.31948 | 20265 ft | 397 kts | 140° |
| 2026-05-08 07:58 | 50.54379 | 5.34870 | 20775 ft | 399 kts | 140° |
| 2026-05-08 07:58 | 50.52346 | 5.37767 | 21266 ft | 402 kts | 139° |
| 2026-05-08 07:58 | 50.50292 | 5.40758 | 21780 ft | 403 kts | 139° |
| 2026-05-08 07:59 | 50.48243 | 5.43777 | 22265 ft | 405 kts | 139° |
| 2026-05-08 07:59 | 50.46186 | 5.46823 | 22729 ft | 408 kts | 138° |
| 2026-05-08 07:59 | 50.44115 | 5.49889 | 23188 ft | 410 kts | 139° |
| 2026-05-08 07:59 | 50.42033 | 5.52959 | 23636 ft | 412 kts | 139° |
| 2026-05-08 08:00 | 50.39933 | 5.56043 | 23995 ft | 415 kts | 139° |
| 2026-05-08 08:00 | 50.37814 | 5.59140 | 24320 ft | 418 kts | 139° |
| 2026-05-08 08:00 | 50.35679 | 5.62250 | 24657 ft | 420 kts | 139° |
| 2026-05-08 08:00 | 50.33529 | 5.65374 | 24996 ft | 422 kts | 139° |
| 2026-05-08 08:01 | 50.31371 | 5.68508 | 25336 ft | 424 kts | 139° |
| 2026-05-08 08:01 | 50.29208 | 5.71656 | 25657 ft | 426 kts | 139° |
| 2026-05-08 08:01 | 50.27186 | 5.75063 | 25975 ft | 430 kts | 129° |
| 2026-05-08 08:01 | 50.25538 | 5.78975 | 26310 ft | 434 kts | 120° |
| 2026-05-08 08:02 | 50.24321 | 5.83308 | 26616 ft | 438 kts | 110° |
| 2026-05-08 08:02 | 50.23505 | 5.87913 | 26925 ft | 441 kts | 106° |
| 2026-05-08 08:02 | 50.22731 | 5.92556 | 27221 ft | 443 kts | 106° |
| 2026-05-08 08:02 | 50.21945 | 5.97212 | 27515 ft | 445 kts | 107° |
| 2026-05-08 08:03 | 50.21149 | 6.01888 | 27782 ft | 447 kts | 107° |
| 2026-05-08 08:03 | 50.20346 | 6.06584 | 28052 ft | 449 kts | 107° |
| 2026-05-08 08:03 | 50.19537 | 6.11304 | 28331 ft | 451 kts | 107° |
| 2026-05-08 08:03 | 50.18795 | 6.16065 | 28602 ft | 454 kts | 101° |
| 2026-05-08 08:04 | 50.18473 | 6.20972 | 28853 ft | 457 kts | 92° |
| 2026-05-08 08:04 | 50.18620 | 6.25946 | 29104 ft | 460 kts | 85° |
| 2026-05-08 08:04 | 50.18942 | 6.30920 | 29346 ft | 462 kts | 85° |
| 2026-05-08 08:04 | 50.19256 | 6.35919 | 29589 ft | 463 kts | 85° |
| 2026-05-08 08:05 | 50.19567 | 6.40931 | 29827 ft | 465 kts | 85° |
| 2026-05-08 08:05 | 50.19871 | 6.45895 | 30031 ft | 467 kts | 85° |
| 2026-05-08 08:05 | 50.20177 | 6.50945 | 30215 ft | 469 kts | 85° |
| 2026-05-08 08:05 | 50.20485 | 6.56092 | 30393 ft | 470 kts | 85° |
| 2026-05-08 08:06 | 50.20781 | 6.61109 | 30625 ft | 470 kts | 86° |
| 2026-05-08 08:06 | 50.21082 | 6.66186 | 30868 ft | 470 kts | 86° |
| 2026-05-08 08:06 | 50.21384 | 6.71266 | 31116 ft | 470 kts | 86° |
| 2026-05-08 08:06 | 50.21687 | 6.76341 | 31362 ft | 470 kts | 86° |
| 2026-05-08 08:07 | 50.21991 | 6.81427 | 31600 ft | 470 kts | 86° |
| 2026-05-08 08:07 | 50.22099 | 6.86516 | 31827 ft | 469 kts | 94° |
| 2026-05-08 08:07 | 50.21860 | 6.91587 | 32041 ft | 469 kts | 96° |
| 2026-05-08 08:07 | 50.21593 | 6.96669 | 32219 ft | 470 kts | 96° |
| 2026-05-08 08:08 | 50.21322 | 7.01757 | 32431 ft | 471 kts | 96° |
| 2026-05-08 08:08 | 50.21051 | 7.06838 | 32656 ft | 471 kts | 96° |
| 2026-05-08 08:08 | 50.20866 | 7.10288 | 32810 ft | 471 kts | 96° |
| 2026-05-08 08:08 | 50.20592 | 7.15372 | 33041 ft | 471 kts | 96° |
| 2026-05-08 08:09 | 50.20317 | 7.20463 | 33265 ft | 471 kts | 96° |
| 2026-05-08 08:09 | 50.20039 | 7.25555 | 33488 ft | 471 kts | 96° |
| 2026-05-08 08:09 | 50.19732 | 7.30640 | 33718 ft | 470 kts | 100° |
| 2026-05-08 08:09 | 50.19063 | 7.35623 | 33930 ft | 468 kts | 108° |
| 2026-05-08 08:10 | 50.18059 | 7.40439 | 34121 ft | 467 kts | 110° |
| 2026-05-08 08:10 | 50.17035 | 7.45244 | 34339 ft | 466 kts | 110° |
| 2026-05-08 08:10 | 50.16014 | 7.50038 | 34544 ft | 466 kts | 110° |
| 2026-05-08 08:10 | 50.14993 | 7.54839 | 34749 ft | 466 kts | 110° |
| 2026-05-08 08:11 | 50.13975 | 7.59633 | 34941 ft | 466 kts | 110° |
| 2026-05-08 08:11 | 50.12972 | 7.64364 | 35087 ft | 466 kts | 110° |
| 2026-05-08 08:11 | 50.11956 | 7.69149 | 35129 ft | 465 kts | 110° |
| 2026-05-08 08:12 | 50.09917 | 7.78697 | 35125 ft | 464 kts | 111° |
| 2026-05-08 08:12 | 50.07825 | 7.88194 | 35137 ft | 463 kts | 115° |
| 2026-05-08 08:13 | 50.04661 | 7.96827 | 35139 ft | 458 kts | 127° |
| 2026-05-08 08:13 | 50.01077 | 8.05025 | 35143 ft | 459 kts | 127° |
| 2026-05-08 08:14 | 49.97491 | 8.13221 | 35146 ft | 459 kts | 127° |
| 2026-05-08 08:14 | 49.93898 | 8.21418 | 35141 ft | 459 kts | 127° |
| 2026-05-08 08:15 | 49.90307 | 8.29600 | 35119 ft | 459 kts | 127° |
| 2026-05-08 08:15 | 49.86701 | 8.37786 | 35118 ft | 459 kts | 127° |
| 2026-05-08 08:16 | 49.83018 | 8.45845 | 35120 ft | 458 kts | 130° |
| 2026-05-08 08:16 | 49.79055 | 8.53544 | 35122 ft | 456 kts | 133° |
| 2026-05-08 08:17 | 49.75018 | 8.61114 | 35123 ft | 456 kts | 132° |
| 2026-05-08 08:17 | 49.71026 | 8.68730 | 35120 ft | 456 kts | 131° |
| 2026-05-08 08:18 | 49.67069 | 8.76380 | 35115 ft | 456 kts | 131° |
| 2026-05-08 08:18 | 49.63112 | 8.84033 | 35106 ft | 456 kts | 132° |
| 2026-05-08 08:19 | 49.59138 | 8.91658 | 35112 ft | 456 kts | 132° |
| 2026-05-08 08:19 | 49.55162 | 8.99257 | 35115 ft | 455 kts | 132° |
| 2026-05-08 08:20 | 49.51178 | 9.06840 | 35099 ft | 456 kts | 132° |
| 2026-05-08 08:20 | 49.47184 | 9.14420 | 35104 ft | 456 kts | 131° |
| 2026-05-08 08:21 | 49.43634 | 9.22547 | 35107 ft | 459 kts | 126° |
| 2026-05-08 08:21 | 49.40144 | 9.30751 | 35109 ft | 459 kts | 126° |
| 2026-05-08 08:22 | 49.36647 | 9.38933 | 35113 ft | 459 kts | 126° |
| 2026-05-08 08:22 | 49.33142 | 9.47100 | 35113 ft | 458 kts | 126° |
| 2026-05-08 08:23 | 49.29636 | 9.55253 | 35125 ft | 458 kts | 126° |
| 2026-05-08 08:23 | 49.26138 | 9.63383 | 35125 ft | 457 kts | 126° |
| 2026-05-08 08:24 | 49.22635 | 9.71496 | 35126 ft | 457 kts | 127° |
| 2026-05-08 08:24 | 49.19122 | 9.79583 | 35107 ft | 456 kts | 127° |
| 2026-05-08 08:25 | 49.15604 | 9.87671 | 35098 ft | 457 kts | 127° |
| 2026-05-08 08:25 | 49.12076 | 9.95742 | 35100 ft | 457 kts | 127° |
| 2026-05-08 08:26 | 49.08540 | 10.03811 | 35088 ft | 458 kts | 127° |
| 2026-05-08 08:26 | 49.04658 | 10.11411 | 35116 ft | 451 kts | 138° |
| 2026-05-08 08:27 | 49.00211 | 10.18162 | 35109 ft | 451 kts | 138° |
| 2026-05-08 08:27 | 48.95767 | 10.24903 | 35124 ft | 451 kts | 138° |
| 2026-05-08 08:28 | 48.91318 | 10.31641 | 35131 ft | 451 kts | 138° |
| 2026-05-08 08:28 | 48.86896 | 10.38317 | 35138 ft | 451 kts | 138° |
| 2026-05-08 08:29 | 48.82441 | 10.45025 | 35137 ft | 451 kts | 138° |
| 2026-05-08 08:29 | 48.77987 | 10.51727 | 35139 ft | 451 kts | 138° |
| 2026-05-08 08:30 | 48.73535 | 10.58409 | 35133 ft | 451 kts | 139° |
| 2026-05-08 08:30 | 48.66840 | 10.68396 | 35132 ft | 450 kts | 139° |
| 2026-05-08 08:31 | 48.62369 | 10.75035 | 35128 ft | 450 kts | 139° |
| 2026-05-08 08:31 | 48.57997 | 10.81817 | 35124 ft | 453 kts | 132° |
| 2026-05-08 08:32 | 48.54025 | 10.89215 | 35107 ft | 453 kts | 133° |
| 2026-05-08 08:32 | 48.50031 | 10.96657 | 35102 ft | 454 kts | 133° |
| 2026-05-08 08:33 | 48.46074 | 11.03986 | 35102 ft | 454 kts | 133° |
| 2026-05-08 08:33 | 48.42081 | 11.11357 | 35106 ft | 454 kts | 133° |
| 2026-05-08 08:34 | 48.38082 | 11.18716 | 35110 ft | 454 kts | 133° |
| 2026-05-08 08:34 | 48.34069 | 11.26065 | 35091 ft | 454 kts | 133° |
| 2026-05-08 08:35 | 48.30053 | 11.33403 | 35090 ft | 455 kts | 133° |
| 2026-05-08 08:35 | 48.26025 | 11.40750 | 35092 ft | 456 kts | 133° |
| 2026-05-08 08:36 | 48.21989 | 11.48086 | 35094 ft | 456 kts | 133° |
| 2026-05-08 08:36 | 48.17947 | 11.55417 | 35097 ft | 456 kts | 133° |
| 2026-05-08 08:37 | 48.13899 | 11.62746 | 35082 ft | 457 kts | 134° |
| 2026-05-08 08:37 | 48.09846 | 11.70070 | 35087 ft | 457 kts | 134° |
| 2026-05-08 08:38 | 48.05781 | 11.77400 | 35088 ft | 458 kts | 134° |
| 2026-05-08 08:38 | 48.01702 | 11.84707 | 35077 ft | 458 kts | 134° |
| 2026-05-08 08:39 | 47.97613 | 11.92019 | 35078 ft | 459 kts | 134° |
| 2026-05-08 08:39 | 47.93515 | 11.99336 | 35069 ft | 460 kts | 134° |
| 2026-05-08 08:40 | 47.89406 | 12.06660 | 35078 ft | 461 kts | 134° |
| 2026-05-08 08:40 | 47.85286 | 12.13985 | 35085 ft | 461 kts | 135° |
| 2026-05-08 08:41 | 47.81157 | 12.21309 | 35084 ft | 462 kts | 135° |
| 2026-05-08 08:41 | 47.77018 | 12.28613 | 35077 ft | 462 kts | 135° |
| 2026-05-08 08:42 | 47.72873 | 12.35899 | 35087 ft | 462 kts | 135° |
| 2026-05-08 08:42 | 47.68722 | 12.43179 | 35094 ft | 462 kts | 135° |
| 2026-05-08 08:43 | 47.64567 | 12.50451 | 35089 ft | 462 kts | 135° |
| 2026-05-08 08:43 | 47.60366 | 12.57652 | 35097 ft | 461 kts | 137° |
| 2026-05-08 08:44 | 47.56017 | 12.64608 | 35080 ft | 459 kts | 139° |
| 2026-05-08 08:44 | 47.51620 | 12.71472 | 35066 ft | 460 kts | 139° |
| 2026-05-08 08:45 | 47.47236 | 12.78377 | 35081 ft | 461 kts | 139° |
| 2026-05-08 08:45 | 47.42864 | 12.85311 | 35085 ft | 461 kts | 139° |
| 2026-05-08 08:46 | 47.38515 | 12.92195 | 35086 ft | 461 kts | 139° |
| 2026-05-08 08:46 | 47.34141 | 12.99105 | 35074 ft | 461 kts | 139° |
| 2026-05-08 08:47 | 47.29758 | 13.06004 | 35078 ft | 462 kts | 139° |
| 2026-05-08 08:47 | 47.25353 | 13.12916 | 35060 ft | 463 kts | 139° |
| 2026-05-08 08:48 | 47.20948 | 13.19811 | 35079 ft | 462 kts | 140° |
| 2026-05-08 08:48 | 47.16537 | 13.26689 | 35092 ft | 462 kts | 140° |
| 2026-05-08 08:49 | 47.12127 | 13.33559 | 35080 ft | 462 kts | 140° |
| 2026-05-08 08:49 | 47.07710 | 13.40421 | 35079 ft | 463 kts | 140° |
| 2026-05-08 08:50 | 47.03283 | 13.47275 | 35091 ft | 463 kts | 140° |
| 2026-05-08 08:50 | 46.98847 | 13.54132 | 35088 ft | 463 kts | 140° |
| 2026-05-08 08:51 | 46.94411 | 13.60976 | 35101 ft | 463 kts | 140° |
| 2026-05-08 08:51 | 46.89966 | 13.67798 | 35092 ft | 463 kts | 140° |
| 2026-05-08 08:52 | 46.86267 | 13.73458 | 35097 ft | 463 kts | 140° |
| 2026-05-08 08:52 | 46.81822 | 13.80255 | 35102 ft | 463 kts | 140° |
| 2026-05-08 08:53 | 46.77372 | 13.87052 | 35112 ft | 463 kts | 140° |
| 2026-05-08 08:53 | 46.72916 | 13.93833 | 35098 ft | 463 kts | 140° |
| 2026-05-08 08:54 | 46.68462 | 14.00591 | 35123 ft | 462 kts | 140° |
| 2026-05-08 08:54 | 46.64017 | 14.07331 | 35132 ft | 461 kts | 140° |
| 2026-05-08 08:55 | 46.59571 | 14.14054 | 35131 ft | 461 kts | 140° |
| 2026-05-08 08:55 | 46.55117 | 14.20754 | 35130 ft | 460 kts | 140° |
| 2026-05-08 08:56 | 46.50665 | 14.27438 | 35101 ft | 460 kts | 140° |
| 2026-05-08 08:56 | 46.46216 | 14.34107 | 35100 ft | 460 kts | 140° |
| 2026-05-08 08:57 | 46.41762 | 14.40767 | 35114 ft | 460 kts | 140° |
| 2026-05-08 08:57 | 46.37309 | 14.47411 | 35117 ft | 459 kts | 141° |
| 2026-05-08 08:58 | 46.32855 | 14.54036 | 35121 ft | 459 kts | 140° |
| 2026-05-08 08:58 | 46.28399 | 14.60653 | 35103 ft | 459 kts | 141° |
| 2026-05-08 08:59 | 46.23931 | 14.67258 | 35096 ft | 460 kts | 141° |
| 2026-05-08 08:59 | 46.19489 | 14.73815 | 35096 ft | 459 kts | 140° |
| 2026-05-08 09:00 | 46.14989 | 14.80441 | 35106 ft | 459 kts | 141° |
| 2026-05-08 09:00 | 46.10552 | 14.86961 | 35099 ft | 458 kts | 141° |
| 2026-05-08 09:01 | 46.06082 | 14.93513 | 35092 ft | 458 kts | 141° |
| 2026-05-08 09:01 | 46.01611 | 15.00052 | 35093 ft | 458 kts | 141° |
| 2026-05-08 09:02 | 45.97133 | 15.06585 | 35093 ft | 459 kts | 141° |
| 2026-05-08 09:02 | 45.92655 | 15.13109 | 35095 ft | 458 kts | 140° |
| 2026-05-08 09:03 | 45.88170 | 15.19620 | 35083 ft | 458 kts | 140° |
| 2026-05-08 09:03 | 45.83682 | 15.26120 | 35088 ft | 459 kts | 140° |
| 2026-05-08 09:04 | 45.79181 | 15.32614 | 35093 ft | 459 kts | 141° |
| 2026-05-08 09:04 | 45.74898 | 15.39446 | 35097 ft | 463 kts | 135° |
| 2026-05-08 09:05 | 45.70784 | 15.46536 | 35096 ft | 463 kts | 135° |
| 2026-05-08 09:05 | 45.66673 | 15.53618 | 35095 ft | 463 kts | 135° |
| 2026-05-08 09:06 | 45.62576 | 15.60641 | 35094 ft | 463 kts | 135° |
| 2026-05-08 09:06 | 45.58446 | 15.67690 | 35094 ft | 463 kts | 135° |
| 2026-05-08 09:07 | 45.54314 | 15.74728 | 35089 ft | 462 kts | 135° |
| 2026-05-08 09:07 | 45.50181 | 15.81752 | 35081 ft | 463 kts | 135° |
| 2026-05-08 09:08 | 45.46035 | 15.88773 | 35081 ft | 463 kts | 135° |
| 2026-05-08 09:08 | 45.41891 | 15.95775 | 35072 ft | 462 kts | 135° |
| 2026-05-08 09:09 | 45.37744 | 16.02771 | 35077 ft | 462 kts | 135° |
| 2026-05-08 09:09 | 45.33590 | 16.09761 | 35065 ft | 463 kts | 135° |
| 2026-05-08 09:10 | 45.29429 | 16.16740 | 35076 ft | 463 kts | 135° |
| 2026-05-08 09:10 | 45.25260 | 16.23723 | 35081 ft | 464 kts | 135° |
| 2026-05-08 09:11 | 45.21087 | 16.30697 | 35082 ft | 464 kts | 135° |
| 2026-05-08 09:11 | 45.16910 | 16.37662 | 35070 ft | 463 kts | 135° |
| 2026-05-08 09:12 | 45.12726 | 16.44603 | 35146 ft | 464 kts | 136° |
| 2026-05-08 09:12 | 45.10601 | 16.48050 | 35355 ft | 464 kts | 136° |
| 2026-05-08 09:12 | 45.08460 | 16.51452 | 35557 ft | 463 kts | 137° |
| 2026-05-08 09:13 | 45.06311 | 16.54832 | 35765 ft | 462 kts | 137° |
| 2026-05-08 09:13 | 45.04159 | 16.58199 | 35975 ft | 461 kts | 137° |
| 2026-05-08 09:13 | 45.02009 | 16.61562 | 36175 ft | 460 kts | 137° |
| 2026-05-08 09:13 | 44.99871 | 16.64916 | 36368 ft | 460 kts | 137° |
| 2026-05-08 09:14 | 44.97738 | 16.68276 | 36516 ft | 460 kts | 136° |
| 2026-05-08 09:14 | 44.95604 | 16.71642 | 36689 ft | 459 kts | 136° |
| 2026-05-08 09:14 | 44.93473 | 16.74998 | 36848 ft | 459 kts | 136° |
| 2026-05-08 09:14 | 44.91346 | 16.78346 | 37019 ft | 458 kts | 136° |
| 2026-05-08 09:15 | 44.87100 | 16.85013 | 37102 ft | 456 kts | 136° |
| 2026-05-08 09:15 | 44.82857 | 16.91645 | 37102 ft | 455 kts | 136° |
| 2026-05-08 09:16 | 44.78619 | 16.98268 | 37106 ft | 456 kts | 136° |
| 2026-05-08 09:16 | 44.74370 | 17.04899 | 37104 ft | 456 kts | 136° |
| 2026-05-08 09:17 | 44.70114 | 17.11506 | 37098 ft | 456 kts | 137° |
| 2026-05-08 09:17 | 44.65839 | 17.18106 | 37093 ft | 456 kts | 136° |
| 2026-05-08 09:18 | 44.61582 | 17.24688 | 37086 ft | 455 kts | 136° |
| 2026-05-08 09:18 | 44.57327 | 17.31264 | 37099 ft | 455 kts | 137° |
| 2026-05-08 09:19 | 44.53064 | 17.37819 | 37103 ft | 454 kts | 137° |
| 2026-05-08 09:19 | 44.48802 | 17.44360 | 37106 ft | 454 kts | 137° |
| 2026-05-08 09:20 | 44.44543 | 17.50884 | 37092 ft | 454 kts | 137° |
| 2026-05-08 09:20 | 44.40280 | 17.57386 | 37097 ft | 453 kts | 137° |
| 2026-05-08 09:21 | 44.36022 | 17.63879 | 37103 ft | 453 kts | 137° |
| 2026-05-08 09:23 | 44.21126 | 17.86495 | 37098 ft | 452 kts | 137° |
| 2026-05-08 09:23 | 44.16861 | 17.92920 | 37102 ft | 451 kts | 137° |
| 2026-05-08 09:24 | 44.12589 | 17.99335 | 37102 ft | 451 kts | 137° |
| 2026-05-08 09:24 | 44.08350 | 18.05696 | 37096 ft | 451 kts | 137° |
| 2026-05-08 09:25 | 44.04088 | 18.12085 | 37105 ft | 451 kts | 137° |
| 2026-05-08 09:25 | 43.99824 | 18.18464 | 37119 ft | 451 kts | 137° |
| 2026-05-08 09:26 | 43.95561 | 18.24831 | 37118 ft | 450 kts | 137° |
| 2026-05-08 09:26 | 43.91288 | 18.31185 | 37114 ft | 450 kts | 137° |
| 2026-05-08 09:27 | 43.87020 | 18.37518 | 37117 ft | 450 kts | 137° |
| 2026-05-08 09:27 | 43.82744 | 18.43851 | 37121 ft | 449 kts | 137° |
| 2026-05-08 09:28 | 43.78473 | 18.50159 | 37118 ft | 449 kts | 137° |
| 2026-05-08 09:28 | 43.74203 | 18.56462 | 37115 ft | 449 kts | 138° |
| 2026-05-08 09:29 | 43.69930 | 18.62755 | 37100 ft | 449 kts | 138° |
| 2026-05-08 09:29 | 43.65660 | 18.69034 | 37098 ft | 449 kts | 138° |
| 2026-05-08 09:30 | 43.61380 | 18.75301 | 37091 ft | 448 kts | 138° |
| 2026-05-08 09:30 | 43.57111 | 18.81533 | 37091 ft | 447 kts | 138° |
| 2026-05-08 09:31 | 43.52844 | 18.87764 | 37079 ft | 446 kts | 138° |
| 2026-05-08 09:31 | 43.48578 | 18.93972 | 37087 ft | 446 kts | 138° |
| 2026-05-08 09:32 | 43.44331 | 19.00194 | 37082 ft | 446 kts | 137° |
| 2026-05-08 09:32 | 43.40131 | 19.06464 | 37079 ft | 446 kts | 137° |
| 2026-05-08 09:33 | 43.35939 | 19.12739 | 37047 ft | 446 kts | 137° |
| 2026-05-08 09:33 | 43.31733 | 19.18996 | 37049 ft | 446 kts | 137° |
| 2026-05-08 09:34 | 43.27510 | 19.25238 | 37051 ft | 446 kts | 137° |
| 2026-05-08 09:34 | 43.23284 | 19.31481 | 37049 ft | 447 kts | 137° |
| 2026-05-08 09:35 | 43.19056 | 19.37719 | 37056 ft | 447 kts | 137° |
| 2026-05-08 09:35 | 43.14815 | 19.43946 | 37049 ft | 447 kts | 137° |
| 2026-05-08 09:36 | 43.10577 | 19.50181 | 37044 ft | 447 kts | 137° |
| 2026-05-08 09:36 | 43.06333 | 19.56396 | 37044 ft | 447 kts | 137° |
| 2026-05-08 09:37 | 43.02085 | 19.62590 | 37044 ft | 447 kts | 137° |
| 2026-05-08 09:37 | 42.98551 | 19.67740 | 37045 ft | 447 kts | 137° |
| 2026-05-08 09:38 | 42.94293 | 19.73932 | 37045 ft | 447 kts | 137° |
| 2026-05-08 09:38 | 42.89345 | 19.81110 | 37033 ft | 447 kts | 137° |
| 2026-05-08 09:39 | 42.85081 | 19.87283 | 37026 ft | 447 kts | 137° |
| 2026-05-08 09:39 | 42.81502 | 19.92453 | 37018 ft | 448 kts | 137° |
| 2026-05-08 09:40 | 42.77226 | 19.98622 | 37027 ft | 448 kts | 137° |
| 2026-05-08 09:40 | 42.73013 | 20.04806 | 37041 ft | 449 kts | 135° |
| 2026-05-08 09:41 | 42.69019 | 20.11358 | 37048 ft | 451 kts | 133° |
| 2026-05-08 09:41 | 42.65115 | 20.18041 | 37042 ft | 451 kts | 133° |
| 2026-05-08 09:42 | 42.61170 | 20.24647 | 37057 ft | 450 kts | 133° |
| 2026-05-08 09:42 | 42.57184 | 20.31180 | 37050 ft | 449 kts | 134° |
| 2026-05-08 09:43 | 42.53182 | 20.37694 | 37057 ft | 449 kts | 134° |
| 2026-05-08 09:43 | 42.49192 | 20.44216 | 37062 ft | 450 kts | 134° |
| 2026-05-08 09:44 | 42.45204 | 20.50737 | 37045 ft | 449 kts | 134° |
| 2026-05-08 09:44 | 42.41200 | 20.57245 | 37058 ft | 451 kts | 134° |
| 2026-05-08 09:45 | 42.37190 | 20.63757 | 37060 ft | 450 kts | 134° |
| 2026-05-08 09:45 | 42.33180 | 20.70259 | 37060 ft | 450 kts | 134° |
| 2026-05-08 09:46 | 42.29170 | 20.76752 | 37062 ft | 450 kts | 134° |
| 2026-05-08 09:46 | 42.25147 | 20.83236 | 37050 ft | 451 kts | 134° |
| 2026-05-08 09:47 | 42.21116 | 20.89720 | 37061 ft | 451 kts | 134° |
| 2026-05-08 09:47 | 42.17080 | 20.96198 | 37075 ft | 452 kts | 134° |
| 2026-05-08 09:48 | 42.13040 | 21.02677 | 37078 ft | 452 kts | 134° |
| 2026-05-08 09:48 | 42.08731 | 21.08770 | 37084 ft | 448 kts | 141° |
| 2026-05-08 09:49 | 42.04195 | 21.14515 | 37074 ft | 448 kts | 141° |
| 2026-05-08 09:49 | 41.99662 | 21.20273 | 37069 ft | 449 kts | 141° |
| 2026-05-08 09:50 | 41.95116 | 21.26031 | 37076 ft | 449 kts | 141° |
| 2026-05-08 09:50 | 41.90563 | 21.31781 | 37085 ft | 449 kts | 141° |
| 2026-05-08 09:51 | 41.86016 | 21.37504 | 37089 ft | 450 kts | 141° |
| 2026-05-08 09:51 | 41.81445 | 21.43248 | 37100 ft | 450 kts | 141° |
| 2026-05-08 09:52 | 41.76877 | 21.48985 | 37090 ft | 450 kts | 141° |
| 2026-05-08 09:52 | 41.72311 | 21.54719 | 37087 ft | 451 kts | 141° |
| 2026-05-08 09:53 | 41.67731 | 21.60450 | 37086 ft | 451 kts | 141° |
| 2026-05-08 09:53 | 41.63137 | 21.66187 | 37093 ft | 452 kts | 141° |
| 2026-05-08 09:54 | 41.58541 | 21.71911 | 37100 ft | 452 kts | 141° |
| 2026-05-08 09:54 | 41.53939 | 21.77634 | 37103 ft | 452 kts | 141° |
| 2026-05-08 09:55 | 41.49336 | 21.83341 | 37074 ft | 453 kts | 142° |
| 2026-05-08 09:55 | 41.44706 | 21.89069 | 37080 ft | 454 kts | 142° |
| 2026-05-08 09:56 | 41.40069 | 21.94793 | 37086 ft | 455 kts | 142° |
| 2026-05-08 09:56 | 41.35422 | 22.00524 | 37094 ft | 456 kts | 142° |
| 2026-05-08 09:57 | 41.28469 | 22.09075 | 37098 ft | 456 kts | 142° |
| 2026-05-08 09:57 | 41.23817 | 22.14793 | 37062 ft | 456 kts | 142° |
| 2026-05-08 09:58 | 41.19145 | 22.20511 | 37082 ft | 457 kts | 142° |
| 2026-05-08 09:58 | 41.14421 | 22.26167 | 37084 ft | 458 kts | 144° |
| 2026-05-08 09:59 | 41.09494 | 22.31505 | 37095 ft | 457 kts | 147° |
| 2026-05-08 09:59 | 41.04496 | 22.36705 | 37095 ft | 457 kts | 147° |
| 2026-05-08 10:00 | 40.99526 | 22.41962 | 37098 ft | 457 kts | 146° |
| 2026-05-08 10:00 | 40.94582 | 22.47282 | 37073 ft | 458 kts | 146° |
| 2026-05-08 10:01 | 40.89632 | 22.52600 | 37086 ft | 459 kts | 146° |
| 2026-05-08 10:01 | 40.84659 | 22.57903 | 37100 ft | 459 kts | 146° |
| 2026-05-08 10:02 | 40.79679 | 22.63190 | 37114 ft | 459 kts | 146° |
| 2026-05-08 10:02 | 40.74699 | 22.68472 | 37114 ft | 460 kts | 146° |
| 2026-05-08 10:03 | 40.69719 | 22.73758 | 37112 ft | 460 kts | 147° |
| 2026-05-08 10:03 | 40.64731 | 22.79043 | 37115 ft | 460 kts | 147° |
| 2026-05-08 10:04 | 40.59741 | 22.84309 | 37147 ft | 460 kts | 147° |
| 2026-05-08 10:04 | 40.54747 | 22.89563 | 37165 ft | 460 kts | 147° |
| 2026-05-08 10:05 | 40.49752 | 22.94811 | 37171 ft | 459 kts | 147° |
| 2026-05-08 10:05 | 40.44852 | 23.00219 | 37169 ft | 465 kts | 139° |
| 2026-05-08 10:06 | 40.40413 | 23.06414 | 37161 ft | 466 kts | 139° |
| 2026-05-08 10:06 | 40.35956 | 23.12578 | 37137 ft | 465 kts | 139° |
| 2026-05-08 10:07 | 40.31489 | 23.18722 | 37133 ft | 466 kts | 139° |
| 2026-05-08 10:07 | 40.27052 | 23.24824 | 37132 ft | 466 kts | 139° |
| 2026-05-08 10:08 | 40.22583 | 23.30961 | 37133 ft | 466 kts | 139° |
| 2026-05-08 10:08 | 40.18079 | 23.37140 | 37121 ft | 466 kts | 139° |
| 2026-05-08 10:09 | 40.13632 | 23.43224 | 37120 ft | 466 kts | 140° |
| 2026-05-08 10:09 | 40.09144 | 23.49346 | 37125 ft | 467 kts | 140° |
| 2026-05-08 10:10 | 40.04647 | 23.55469 | 37131 ft | 467 kts | 140° |
| 2026-05-08 10:10 | 40.00147 | 23.61596 | 37134 ft | 468 kts | 140° |
| 2026-05-08 10:11 | 39.95639 | 23.67716 | 37140 ft | 468 kts | 140° |
| 2026-05-08 10:11 | 39.91120 | 23.73826 | 37146 ft | 468 kts | 140° |
| 2026-05-08 10:12 | 39.86596 | 23.79930 | 37118 ft | 469 kts | 140° |
| 2026-05-08 10:12 | 39.82065 | 23.86047 | 37136 ft | 470 kts | 140° |
| 2026-05-08 10:13 | 39.77519 | 23.92169 | 37142 ft | 471 kts | 140° |
| 2026-05-08 10:13 | 39.72974 | 23.98289 | 37145 ft | 471 kts | 141° |
| 2026-05-08 10:14 | 39.68416 | 24.04399 | 37152 ft | 471 kts | 141° |
| 2026-05-08 10:14 | 39.63849 | 24.10499 | 37135 ft | 471 kts | 141° |
| 2026-05-08 10:15 | 39.59278 | 24.16604 | 37128 ft | 472 kts | 141° |
| 2026-05-08 10:15 | 39.54705 | 24.22709 | 37136 ft | 473 kts | 141° |
| 2026-05-08 10:16 | 39.50121 | 24.28814 | 37148 ft | 473 kts | 141° |
| 2026-05-08 10:16 | 39.45524 | 24.34915 | 37151 ft | 473 kts | 141° |
| 2026-05-08 10:17 | 39.40922 | 24.41001 | 37133 ft | 473 kts | 141° |
| 2026-05-08 10:17 | 39.36314 | 24.47081 | 37140 ft | 474 kts | 141° |
| 2026-05-08 10:18 | 39.31694 | 24.53177 | 37149 ft | 475 kts | 141° |
| 2026-05-08 10:18 | 39.27102 | 24.59326 | 37139 ft | 476 kts | 140° |
| 2026-05-08 10:19 | 39.22515 | 24.65493 | 37143 ft | 477 kts | 141° |
| 2026-05-08 10:20 | 39.15591 | 24.74713 | 37151 ft | 477 kts | 141° |
| 2026-05-08 10:20 | 39.10964 | 24.80837 | 37159 ft | 477 kts | 141° |
| 2026-05-08 10:21 | 39.06315 | 24.86932 | 37160 ft | 477 kts | 141° |
| 2026-05-08 10:21 | 39.01634 | 24.92987 | 37164 ft | 477 kts | 142° |
| 2026-05-08 10:22 | 38.96948 | 24.99032 | 37132 ft | 478 kts | 142° |
| 2026-05-08 10:22 | 38.92247 | 25.05094 | 37127 ft | 481 kts | 142° |
| 2026-05-08 10:23 | 38.88313 | 25.10182 | 37125 ft | 484 kts | 142° |
| 2026-05-08 10:23 | 38.82781 | 25.17322 | 37138 ft | 487 kts | 142° |
| 2026-05-08 10:24 | 38.77993 | 25.23481 | 37144 ft | 488 kts | 142° |
| 2026-05-08 10:24 | 38.73966 | 25.28637 | 37152 ft | 489 kts | 142° |
| 2026-05-08 10:25 | 38.69145 | 25.34784 | 37122 ft | 490 kts | 141° |
| 2026-05-08 10:25 | 38.64306 | 25.40948 | 37136 ft | 492 kts | 141° |
| 2026-05-08 10:26 | 38.59488 | 25.47103 | 37145 ft | 493 kts | 141° |
| 2026-05-08 10:26 | 38.54625 | 25.53303 | 37151 ft | 494 kts | 141° |
| 2026-05-08 10:27 | 38.49750 | 25.59499 | 37172 ft | 495 kts | 141° |
| 2026-05-08 10:27 | 38.44863 | 25.65686 | 37159 ft | 495 kts | 141° |
| 2026-05-08 10:28 | 38.39966 | 25.71872 | 37138 ft | 496 kts | 141° |
| 2026-05-08 10:28 | 38.35061 | 25.78065 | 37155 ft | 496 kts | 141° |
| 2026-05-08 10:29 | 38.30156 | 25.84264 | 37156 ft | 497 kts | 141° |
| 2026-05-08 10:29 | 38.24951 | 25.89900 | 37161 ft | 485 kts | 155° |
| 2026-05-08 10:29 | 38.22020 | 25.91932 | 37160 ft | 473 kts | 164° |
| 2026-05-08 10:30 | 38.19014 | 25.93404 | 37170 ft | 456 kts | 169° |
| 2026-05-08 10:30 | 38.13085 | 25.96082 | 37150 ft | 451 kts | 168° |
| 2026-05-08 10:31 | 38.07151 | 25.98775 | 37173 ft | 453 kts | 168° |
| 2026-05-08 10:31 | 38.01290 | 26.01460 | 37175 ft | 444 kts | 168° |
| 2026-05-08 10:32 | 37.95488 | 26.04102 | 37147 ft | 443 kts | 168° |
| 2026-05-08 10:32 | 37.92549 | 26.05426 | 36284 ft | 453 kts | 169° |
| 2026-05-08 10:32 | 37.89572 | 26.06762 | 35553 ft | 456 kts | 169° |
| 2026-05-08 10:32 | 37.86563 | 26.08114 | 34709 ft | 461 kts | 169° |
| 2026-05-08 10:33 | 37.83515 | 26.09484 | 33752 ft | 468 kts | 169° |
| 2026-05-08 10:33 | 37.80442 | 26.10868 | 32998 ft | 468 kts | 169° |
| 2026-05-08 10:33 | 37.77391 | 26.12254 | 32444 ft | 464 kts | 168° |
| 2026-05-08 10:33 | 37.74366 | 26.13630 | 31877 ft | 460 kts | 168° |
| 2026-05-08 10:34 | 37.71371 | 26.14990 | 31313 ft | 456 kts | 168° |
| 2026-05-08 10:34 | 37.68392 | 26.16340 | 30756 ft | 453 kts | 168° |
| 2026-05-08 10:34 | 37.65430 | 26.17677 | 30192 ft | 450 kts | 168° |
| 2026-05-08 10:34 | 37.62493 | 26.18995 | 29592 ft | 446 kts | 168° |
| 2026-05-08 10:35 | 37.59583 | 26.20301 | 29060 ft | 442 kts | 168° |
| 2026-05-08 10:35 | 37.56698 | 26.21596 | 28531 ft | 438 kts | 167° |
| 2026-05-08 10:35 | 37.53845 | 26.22875 | 28005 ft | 433 kts | 167° |
| 2026-05-08 10:35 | 37.51052 | 26.24122 | 27498 ft | 430 kts | 167° |
| 2026-05-08 10:36 | 37.48249 | 26.25375 | 26994 ft | 426 kts | 167° |
| 2026-05-08 10:36 | 37.45465 | 26.26618 | 26500 ft | 423 kts | 167° |
| 2026-05-08 10:36 | 37.42699 | 26.27853 | 26016 ft | 420 kts | 167° |
| 2026-05-08 10:36 | 37.39954 | 26.29080 | 25542 ft | 418 kts | 166° |
| 2026-05-08 10:37 | 37.37223 | 26.30297 | 25086 ft | 415 kts | 166° |
| 2026-05-08 10:37 | 37.34504 | 26.31507 | 24620 ft | 413 kts | 166° |
| 2026-05-08 10:37 | 37.31799 | 26.32706 | 24157 ft | 412 kts | 166° |
| 2026-05-08 10:37 | 37.29107 | 26.33900 | 23680 ft | 410 kts | 165° |
| 2026-05-08 10:38 | 37.26418 | 26.35095 | 23169 ft | 408 kts | 165° |
| 2026-05-08 10:38 | 37.23754 | 26.36281 | 22707 ft | 405 kts | 165° |
| 2026-05-08 10:38 | 37.21113 | 26.37458 | 22242 ft | 402 kts | 165° |
| 2026-05-08 10:38 | 37.18482 | 26.38626 | 21770 ft | 400 kts | 165° |
| 2026-05-08 10:39 | 37.15868 | 26.39787 | 21290 ft | 398 kts | 165° |
| 2026-05-08 10:39 | 37.13277 | 26.40937 | 20812 ft | 396 kts | 165° |
| 2026-05-08 10:39 | 37.10682 | 26.42086 | 20337 ft | 395 kts | 165° |
| 2026-05-08 10:39 | 37.08094 | 26.43228 | 19841 ft | 394 kts | 165° |
| 2026-05-08 10:40 | 37.05513 | 26.44365 | 19356 ft | 393 kts | 165° |
| 2026-05-08 10:40 | 37.02938 | 26.45500 | 18867 ft | 392 kts | 165° |
| 2026-05-08 10:40 | 37.00370 | 26.46631 | 18375 ft | 392 kts | 164° |
| 2026-05-08 10:40 | 36.97801 | 26.47762 | 17856 ft | 390 kts | 164° |
| 2026-05-08 10:41 | 36.95254 | 26.48885 | 17380 ft | 387 kts | 164° |
| 2026-05-08 10:41 | 36.92732 | 26.50030 | 16897 ft | 385 kts | 159° |
| 2026-05-08 10:41 | 36.90416 | 26.51714 | 16434 ft | 387 kts | 144° |
| 2026-05-08 10:41 | 36.88500 | 26.54063 | 15953 ft | 388 kts | 129° |
| 2026-05-08 10:42 | 36.87108 | 26.56941 | 15494 ft | 388 kts | 114° |
| 2026-05-08 10:42 | 36.86077 | 26.60006 | 15088 ft | 377 kts | 114° |
| 2026-05-08 10:42 | 36.85067 | 26.62976 | 14523 ft | 365 kts | 114° |
| 2026-05-08 10:42 | 36.84084 | 26.65835 | 14059 ft | 351 kts | 115° |
| 2026-05-08 10:43 | 36.83007 | 26.68543 | 13572 ft | 347 kts | 124° |
| 2026-05-08 10:43 | 36.81549 | 26.70903 | 13139 ft | 342 kts | 135° |
| 2026-05-08 10:43 | 36.79949 | 26.73083 | 12714 ft | 339 kts | 134° |
| 2026-05-08 10:43 | 36.78358 | 26.75271 | 12122 ft | 342 kts | 134° |
| 2026-05-08 10:44 | 36.76792 | 26.77441 | 11663 ft | 330 kts | 134° |
| 2026-05-08 10:44 | 36.75274 | 26.79547 | 11247 ft | 325 kts | 134° |
| 2026-05-08 10:44 | 36.73762 | 26.81633 | 10813 ft | 324 kts | 134° |
| 2026-05-08 10:44 | 36.72255 | 26.83705 | 10393 ft | 322 kts | 134° |
| 2026-05-08 10:45 | 36.70764 | 26.85756 | 10198 ft | 314 kts | 134° |
| 2026-05-08 10:45 | 36.69406 | 26.87833 | 10061 ft | 305 kts | 124° |
| 2026-05-08 10:45 | 36.68410 | 26.90129 | 9799 ft | 299 kts | 118° |
| 2026-05-08 10:45 | 36.67478 | 26.92462 | 9243 ft | 298 kts | 118° |
| 2026-05-08 10:46 | 36.66560 | 26.94762 | 8542 ft | 296 kts | 117° |
| 2026-05-08 10:46 | 36.65653 | 26.97036 | 7900 ft | 292 kts | 117° |
| 2026-05-08 10:46 | 36.64752 | 26.99292 | 7243 ft | 289 kts | 117° |
| 2026-05-08 10:46 | 36.63863 | 27.01516 | 6621 ft | 285 kts | 117° |
| 2026-05-08 10:47 | 36.62988 | 27.03695 | 6209 ft | 272 kts | 117° |
| 2026-05-08 10:47 | 36.62180 | 27.05704 | 6146 ft | 248 kts | 117° |
| 2026-05-08 10:47 | 36.61420 | 27.07590 | 6095 ft | 239 kts | 117° |
| 2026-05-08 10:47 | 36.60693 | 27.09398 | 6025 ft | 229 kts | 117° |
| 2026-05-08 10:48 | 36.59996 | 27.11169 | 5943 ft | 226 kts | 112° |
| 2026-05-08 10:48 | 36.59664 | 27.13034 | 5849 ft | 218 kts | 92° |
| 2026-05-08 10:48 | 36.59835 | 27.14909 | 5564 ft | 221 kts | 72° |
| 2026-05-08 10:48 | 36.60368 | 27.16659 | 5207 ft | 217 kts | 69° |
| 2026-05-08 10:49 | 36.60913 | 27.18402 | 4834 ft | 209 kts | 68° |
| 2026-05-08 10:49 | 36.61554 | 27.19943 | 4519 ft | 200 kts | 47° |
| 2026-05-08 10:49 | 36.62690 | 27.20895 | 4047 ft | 198 kts | 14° |
| 2026-05-08 10:49 | 36.64023 | 27.20938 | 3703 ft | 190 kts | 342° |
| 2026-05-08 10:50 | 36.65187 | 27.20223 | 3445 ft | 187 kts | 326° |
| 2026-05-08 10:50 | 36.66288 | 27.19358 | 3192 ft | 187 kts | 326° |
| 2026-05-08 10:50 | 36.67386 | 27.18498 | 2929 ft | 186 kts | 327° |
| 2026-05-08 10:50 | 36.68481 | 27.17650 | 2704 ft | 184 kts | 326° |
| 2026-05-08 10:51 | 36.69570 | 27.16801 | 2450 ft | 187 kts | 326° |
| 2026-05-08 10:51 | 36.70670 | 27.15948 | 2203 ft | 185 kts | 327° |
| 2026-05-08 10:51 | 36.71755 | 27.15112 | 1959 ft | 181 kts | 326° |
| 2026-05-08 10:51 | 36.72803 | 27.14303 | 1712 ft | 172 kts | 326° |
| 2026-05-08 10:52 | 36.73773 | 27.13550 | 1509 ft | 156 kts | 326° |
| 2026-05-08 10:52 | 36.74656 | 27.12860 | 1304 ft | 146 kts | 326° |
| 2026-05-08 10:52 | 36.75500 | 27.12195 | 1120 ft | 142 kts | 326° |
| 2026-05-08 10:52 | 36.76336 | 27.11547 | 941 ft | 141 kts | 326° |
| 2026-05-08 10:53 | 36.77173 | 27.10903 | 741 ft | 141 kts | 327° |
| 2026-05-08 10:53 | 36.78007 | 27.10264 | 520 ft | 141 kts | 326° |
| 2026-05-08 10:53 | 36.78831 | 27.09616 | 409 ft | 138 kts | 326° |
| 2026-05-08 10:53 | 36.79532 | 27.09055 | 412 ft | 90 kts | 328° |
| 2026-05-08 10:54 | 36.79907 | 27.08763 | 410 ft | 55 kts | 327° |
| 2026-05-08 10:54 | 36.80178 | 27.08548 | 418 ft | 33 kts | 327° |
| 2026-05-08 10:54 | 36.80301 | 27.08456 | 420 ft | 16 kts | 331° |
| 2026-05-08 10:54 | 36.80353 | 27.08517 | 421 ft | 12 kts | 97° |
| 2026-05-08 10:55 | 36.80335 | 27.08614 | 421 ft | 11 kts | 103° |
| 2026-05-08 10:55 | 36.80304 | 27.08692 | 417 ft | 10 kts | 137° |
| 2026-05-08 10:55 | 36.80251 | 27.08736 | 420 ft | 9 kts | 147° |
| 2026-05-08 10:55 | 36.80204 | 27.08772 | 415 ft | 7 kts | 148° |
| 2026-05-08 10:56 | 36.80158 | 27.08808 | 414 ft | 8 kts | 148° |
| 2026-05-08 10:56 | 36.80113 | 27.08844 | 415 ft | 7 kts | 148° |
| 2026-05-08 10:56 | 36.80076 | 27.08873 | 417 ft | 6 kts | 148° |
| 2026-05-08 10:56 | 36.80044 | 27.08897 | 413 ft | 5 kts | 148° |
| 2026-05-08 10:57 | 36.80020 | 27.08917 | 419 ft | 4 kts | 148° |
| 2026-05-08 10:57 | 36.80011 | 27.08939 | 417 ft | 3 kts | 83° |
| 2026-05-08 10:57 | 36.80042 | 27.09004 | 417 ft | 2 kts | 58° |